Time;durP1;ratioP1;P1;durP2;ratioP2;P2;SDS_P1;SDS_P2;PMS_P1;PMS_P2;Temp;Humidity;BMP_temperature;BMP_pressure;BME280_temperature;BME280_humidity;BME280_pressure;Samples;Min_cycle;Max_cycle;Signal;HPM_P1;HPM_P2
2023/12/24 00:01:11;;;;;;;10.73;2.90;;;9.20;99.90;;;;;;5073984;28;20041;-72
2023/12/24 00:03:38;;;;;;;13.65;3.17;;;9.40;99.90;;;;;;5073237;28;20048;-74
2023/12/24 00:06:04;;;;;;;14.68;3.67;;;9.30;99.90;;;;;;5057107;28;20131;-72
2023/12/24 00:08:31;;;;;;;17.52;4.03;;;9.30;99.90;;;;;;5073125;28;20453;-73
2023/12/24 00:10:57;;;;;;;15.70;3.40;;;9.40;99.90;;;;;;5056389;28;20127;-72
2023/12/24 00:13:23;;;;;;;12.27;3.60;;;9.30;99.90;;;;;;5072975;28;20456;-71
2023/12/24 00:15:49;;;;;;;14.20;3.88;;;9.40;99.90;;;;;;5056265;28;20045;-72
2023/12/24 00:18:15;;;;;;;11.75;3.25;;;9.40;99.90;;;;;;5072900;28;20391;-71
2023/12/24 00:20:40;;;;;;;17.08;6.50;;;9.30;99.90;;;;;;5074011;28;20049;-72
2023/12/24 00:23:08;;;;;;;20.50;4.63;;;9.30;99.90;;;;;;5073379;28;20059;-72
2023/12/24 00:25:38;;;;;;;16.40;3.55;;;9.30;99.90;;;;;;5072886;28;20049;-72
2023/12/24 00:28:04;;;;;;;18.02;3.22;;;9.40;99.90;;;;;;5074019;28;20120;-72
2023/12/24 00:30:31;;;;;;;20.63;3.75;;;9.30;99.90;;;;;;5074077;28;20086;-74
2023/12/24 00:32:57;;;;;;;14.95;3.63;;;9.30;99.90;;;;;;5070867;28;20056;-72
2023/12/24 00:35:24;;;;;;;16.40;3.80;;;9.30;99.90;;;;;;5074255;28;20045;-74
2023/12/24 00:37:50;;;;;;;13.88;3.70;;;9.30;99.90;;;;;;5056303;28;20057;-72
2023/12/24 00:40:17;;;;;;;17.10;4.40;;;9.40;99.90;;;;;;5074220;28;20044;-72
2023/12/24 00:42:43;;;;;;;12.80;3.50;;;9.40;99.90;;;;;;5056078;28;20045;-74
2023/12/24 00:45:10;;;;;;;20.35;4.03;;;9.40;99.90;;;;;;5073796;28;20045;-74
2023/12/24 00:47:36;;;;;;;16.48;3.35;;;9.50;99.90;;;;;;5055437;28;20196;-74
2023/12/24 00:50:02;;;;;;;19.98;4.00;;;9.30;99.90;;;;;;5055568;28;20055;-73
2023/12/24 00:52:28;;;;;;;11.40;3.03;;;9.40;99.90;;;;;;5072407;28;20049;-73
2023/12/24 00:54:54;;;;;;;14.93;3.38;;;9.40;99.90;;;;;;5072091;28;20040;-73
2023/12/24 00:57:19;;;;;;;13.60;4.05;;;9.30;99.90;;;;;;5073740;28;20511;-74
2023/12/24 00:59:45;;;;;;;15.40;3.40;;;9.30;99.90;;;;;;5055510;28;20055;-73
2023/12/24 01:02:11;;;;;;;18.92;4.10;;;9.30;99.90;;;;;;5072320;28;20070;-74
2023/12/24 01:04:37;;;;;;;16.05;3.63;;;9.30;99.90;;;;;;5072448;28;20048;-74
2023/12/24 01:07:03;;;;;;;10.65;3.63;;;9.30;99.90;;;;;;5073674;28;20048;-73
2023/12/24 01:09:29;;;;;;;14.23;3.70;;;9.40;99.90;;;;;;5073190;28;20396;-73
2023/12/24 01:11:55;;;;;;;15.68;3.85;;;9.40;99.90;;;;;;5055201;28;20085;-73
2023/12/24 01:14:20;;;;;;;13.98;3.88;;;9.40;99.90;;;;;;5072618;28;20045;-72
2023/12/24 01:16:46;;;;;;;16.73;3.95;;;9.30;99.90;;;;;;5073036;28;20174;-75
2023/12/24 01:19:12;;;;;;;11.75;3.90;;;9.30;99.90;;;;;;5071972;28;20110;-73
2023/12/24 01:21:38;;;;;;;12.13;3.60;;;9.30;99.90;;;;;;5071966;28;20048;-73
2023/12/24 01:24:05;;;;;;;19.50;4.30;;;9.30;99.90;;;;;;5071888;28;20048;-72
2023/12/24 01:26:34;;;;;;;16.73;4.00;;;9.30;99.90;;;;;;5072869;28;20102;-72
2023/12/24 01:29:00;;;;;;;17.48;4.15;;;9.40;99.90;;;;;;5072600;28;20048;-72
2023/12/24 01:31:27;;;;;;;14.23;3.80;;;9.40;99.90;;;;;;5055684;28;20129;-72
2023/12/24 01:33:53;;;;;;;15.90;4.22;;;9.30;99.90;;;;;;5073524;28;20076;-72
2023/12/24 01:36:22;;;;;;;14.82;3.38;;;9.30;99.90;;;;;;5073176;28;20048;-72
2023/12/24 01:38:48;;;;;;;10.43;3.13;;;9.40;99.90;;;;;;5073275;28;20132;-73
2023/12/24 01:41:14;;;;;;;15.63;2.90;;;9.30;99.90;;;;;;5071907;28;20139;-73
2023/12/24 01:43:44;;;;;;;12.38;3.50;;;9.30;99.90;;;;;;5072119;28;20148;-72
2023/12/24 01:46:12;;;;;;;18.58;3.60;;;9.30;99.90;;;;;;5072129;28;20102;-74
2023/12/24 01:48:39;;;;;;;12.35;2.95;;;9.30;99.90;;;;;;5071635;28;20096;-73
2023/12/24 01:51:06;;;;;;;11.13;3.42;;;9.40;99.90;;;;;;5071345;28;20051;-73
2023/12/24 01:53:33;;;;;;;10.98;3.28;;;9.30;99.90;;;;;;5054639;28;20056;-74
2023/12/24 01:56:04;;;;;;;12.15;3.50;;;9.30;99.90;;;;;;5071560;28;20412;-73
2023/12/24 01:58:31;;;;;;;11.02;3.30;;;9.30;99.90;;;;;;5072652;28;20098;-73
2023/12/24 02:00:57;;;;;;;9.80;3.50;;;9.40;99.90;;;;;;5071387;28;20083;-74
2023/12/24 02:03:23;;;;;;;14.73;2.83;;;9.40;99.90;;;;;;5071615;28;20052;-73
2023/12/24 02:05:50;;;;;;;12.30;3.00;;;9.30;99.90;;;;;;5054756;28;20053;-73
2023/12/24 02:08:21;;;;;;;14.55;3.38;;;9.30;99.90;;;;;;5070938;28;20060;-73
2023/12/24 02:10:48;;;;;;;10.00;3.40;;;9.40;99.90;;;;;;5073200;28;20387;-73
2023/12/24 02:13:15;;;;;;;10.00;3.08;;;9.30;99.90;;;;;;5071279;28;20078;-73
2023/12/24 02:15:41;;;;;;;11.35;3.88;;;9.30;99.90;;;;;;5070770;28;20044;-73
2023/12/24 02:18:07;;;;;;;7.72;2.88;;;9.40;99.90;;;;;;5071326;28;20523;-73
2023/12/24 02:20:33;;;;;;;12.85;3.80;;;9.30;99.90;;;;;;5038356;28;20186;-73
2023/12/24 02:22:59;;;;;;;7.97;3.17;;;9.30;99.90;;;;;;5071454;28;20131;-73
2023/12/24 02:25:26;;;;;;;13.10;3.80;;;9.40;99.90;;;;;;5072103;28;20041;-74
2023/12/24 02:28:02;;;;;;;11.05;4.60;;;9.30;99.90;;;;;;5071549;28;20049;-73
2023/12/24 02:30:33;;;;;;;12.07;4.22;;;9.30;99.90;;;;;;5071641;28;20041;-75
2023/12/24 02:33:01;;;;;;;20.85;4.43;;;10.10;99.90;;;;;;5071716;28;20114;-74
2023/12/24 02:35:35;;;;;;;14.90;3.92;;;9.40;99.90;;;;;;5070397;28;20052;-72
2023/12/24 02:38:01;;;;;;;13.23;3.95;;;9.30;99.90;;;;;;5071881;28;20094;-73
2023/12/24 02:40:26;;;;;;;9.82;3.40;;;9.40;99.90;;;;;;5054374;28;20044;-72
2023/12/24 02:42:52;;;;;;;13.68;4.20;;;9.40;99.90;;;;;;5071138;28;20122;-70
2023/12/24 02:45:18;;;;;;;15.63;4.25;;;9.40;99.90;;;;;;5071222;28;20478;-71
2023/12/24 02:47:44;;;;;;;12.57;4.60;;;9.50;99.90;;;;;;5070950;28;20526;-70
2023/12/24 02:50:10;;;;;;;9.88;4.18;;;9.40;99.90;;;;;;5071213;28;20091;-69
2023/12/24 02:52:35;;;;;;;13.85;4.35;;;9.40;99.90;;;;;;5070317;28;20190;-71
2023/12/24 02:55:01;;;;;;;10.70;4.22;;;9.40;99.90;;;;;;5071584;28;20051;-73
2023/12/24 02:57:27;;;;;;;14.65;4.57;;;9.50;99.90;;;;;;5074038;28;20040;-69
2023/12/24 02:59:53;;;;;;;18.13;4.50;;;9.50;99.90;;;;;;5075599;28;20048;-69
2023/12/24 03:02:18;;;;;;;11.35;4.70;;;9.50;99.90;;;;;;5075178;28;20131;-70
2023/12/24 03:04:44;;;;;;;13.57;4.28;;;9.40;99.90;;;;;;5074016;28;20040;-69
2023/12/24 03:07:10;;;;;;;11.80;3.55;;;9.50;99.90;;;;;;5074730;28;20036;-71
2023/12/24 03:09:36;;;;;;;13.82;4.10;;;9.40;99.90;;;;;;5074463;28;20045;-72
2023/12/24 03:12:01;;;;;;;17.52;4.28;;;9.50;99.90;;;;;;5075153;28;20052;-74
2023/12/24 03:14:27;;;;;;;12.43;3.42;;;9.50;99.90;;;;;;5057533;28;20541;-70
2023/12/24 03:16:54;;;;;;;13.25;3.60;;;9.60;99.90;;;;;;5075294;28;20093;-71
2023/12/24 03:19:20;;;;;;;11.13;3.53;;;9.50;99.90;;;;;;5074190;28;20049;-71
2023/12/24 03:21:46;;;;;;;11.85;4.13;;;9.40;99.90;;;;;;5074423;28;20083;-71
2023/12/24 03:24:12;;;;;;;14.68;3.92;;;9.50;99.90;;;;;;5074608;28;20053;-70
2023/12/24 03:26:38;;;;;;;11.35;3.67;;;9.60;99.90;;;;;;5075544;28;20041;-71
2023/12/24 03:29:03;;;;;;;11.05;4.15;;;9.60;99.90;;;;;;5074326;28;20044;-74
2023/12/24 03:31:29;;;;;;;11.82;4.10;;;9.60;99.90;;;;;;5074761;28;20052;-71
2023/12/24 03:33:55;;;;;;;9.98;3.80;;;9.50;99.90;;;;;;5075277;28;20067;-71
2023/12/24 03:36:20;;;;;;;9.52;4.30;;;9.50;99.90;;;;;;5073927;28;20380;-72
2023/12/24 03:38:46;;;;;;;9.80;3.50;;;9.60;99.90;;;;;;5073598;28;20048;-70
2023/12/24 03:41:12;;;;;;;9.23;3.88;;;9.50;99.90;;;;;;5056812;28;20408;-72
2023/12/24 03:43:38;;;;;;;10.23;3.70;;;9.60;99.90;;;;;;5075740;28;20395;-71
2023/12/24 03:46:04;;;;;;;12.73;3.95;;;9.60;99.90;;;;;;5075494;28;20130;-71
2023/12/24 03:48:32;;;;;;;11.85;4.18;;;9.60;99.90;;;;;;5074516;28;20076;-71
2023/12/24 03:50:58;;;;;;;8.73;3.42;;;9.60;99.90;;;;;;5072945;28;20462;-71
2023/12/24 03:53:23;;;;;;;9.50;3.30;;;9.60;99.90;;;;;;5073942;28;20048;-71
2023/12/24 03:55:49;;;;;;;7.72;3.55;;;9.60;99.90;;;;;;5074938;28;20045;-71
2023/12/24 03:58:15;;;;;;;6.13;3.20;;;9.60;99.90;;;;;;5073124;28;20052;-71
2023/12/24 04:00:40;;;;;;;7.13;3.13;;;9.60;99.90;;;;;;5074912;28;20084;-71
2023/12/24 04:03:06;;;;;;;6.47;3.38;;;9.70;99.90;;;;;;5057042;28;20044;-71
2023/12/24 04:05:32;;;;;;;6.53;3.40;;;9.60;99.90;;;;;;5074567;28;20047;-71
2023/12/24 04:07:57;;;;;;;6.25;3.33;;;9.70;99.90;;;;;;5073896;28;20399;-70
2023/12/24 04:10:23;;;;;;;5.65;2.88;;;9.70;99.90;;;;;;5073399;28;20073;-71
2023/12/24 04:12:49;;;;;;;7.35;3.00;;;9.70;99.90;;;;;;5074736;28;20063;-71
2023/12/24 04:15:14;;;;;;;7.07;3.08;;;9.70;99.90;;;;;;5074918;28;20051;-70
2023/12/24 04:17:40;;;;;;;6.22;2.72;;;9.70;99.90;;;;;;5075161;28;20044;-70
2023/12/24 04:20:07;;;;;;;7.45;3.00;;;9.60;99.90;;;;;;5074409;28;20399;-70
2023/12/24 04:22:32;;;;;;;7.32;3.42;;;9.70;99.90;;;;;;5073364;28;20044;-70
2023/12/24 04:24:58;;;;;;;7.28;3.20;;;9.70;99.90;;;;;;5074319;28;20047;-70
2023/12/24 04:27:25;;;;;;;8.30;3.30;;;9.70;99.90;;;;;;5071955;28;20086;-70
2023/12/24 04:29:51;;;;;;;7.22;3.00;;;9.80;99.90;;;;;;5073036;28;20053;-70
2023/12/24 04:32:18;;;;;;;6.38;2.80;;;9.80;99.90;;;;;;5072068;28;20055;-74
2023/12/24 04:34:44;;;;;;;6.03;3.20;;;9.70;99.90;;;;;;5073086;28;20115;-70
2023/12/24 04:37:10;;;;;;;4.32;2.70;;;9.80;99.90;;;;;;5072709;28;20083;-70
2023/12/24 04:39:36;;;;;;;5.95;3.55;;;9.70;99.90;;;;;;5072891;28;20044;-70
2023/12/24 04:42:02;;;;;;;5.20;2.65;;;9.80;99.90;;;;;;5056423;28;20052;-71
2023/12/24 04:44:28;;;;;;;7.05;2.72;;;9.80;99.90;;;;;;5072840;28;20051;-70
2023/12/24 04:46:54;;;;;;;5.22;3.13;;;9.70;99.90;;;;;;5073727;28;20123;-70
2023/12/24 04:49:19;;;;;;;4.03;2.10;;;9.80;99.90;;;;;;5072805;28;20556;-71
2023/12/24 04:51:45;;;;;;;5.20;2.60;;;9.90;99.90;;;;;;5055961;28;20078;-71
2023/12/24 04:54:11;;;;;;;5.43;2.60;;;9.80;99.90;;;;;;5055718;28;20085;-71
2023/12/24 04:56:37;;;;;;;5.07;2.40;;;9.80;99.90;;;;;;5072756;28;20294;-72
2023/12/24 04:59:03;;;;;;;5.13;2.28;;;9.90;99.90;;;;;;5073390;28;20044;-71
2023/12/24 05:01:29;;;;;;;5.40;2.10;;;9.80;99.90;;;;;;5055483;28;20048;-71
2023/12/24 05:03:54;;;;;;;5.18;2.30;;;9.80;99.90;;;;;;5071679;28;20052;-71
2023/12/24 05:06:21;;;;;;;7.45;2.72;;;9.80;99.90;;;;;;5071991;28;20145;-73
2023/12/24 05:08:47;;;;;;;6.50;2.53;;;9.90;99.90;;;;;;5073105;28;20527;-71
2023/12/24 05:11:13;;;;;;;5.60;2.58;;;9.90;99.90;;;;;;5073282;28;20048;-74
2023/12/24 05:13:39;;;;;;;7.72;2.10;;;9.90;99.90;;;;;;5071688;28;20044;-71
2023/12/24 05:16:05;;;;;;;4.78;2.20;;;9.90;99.90;;;;;;5073065;28;20052;-70
2023/12/24 05:18:33;;;;;;;6.15;2.17;;;9.90;99.90;;;;;;5071509;28;20399;-70
2023/12/24 05:20:59;;;;;;;6.45;2.47;;;9.90;99.90;;;;;;5073141;28;20091;-71
2023/12/24 05:23:25;;;;;;;8.60;2.50;;;10.00;99.90;;;;;;5071083;28;20052;-71
2023/12/24 05:25:51;;;;;;;9.23;2.92;;;10.00;99.90;;;;;;5073010;28;20041;-71
2023/12/24 05:28:17;;;;;;;13.75;2.78;;;10.00;99.90;;;;;;5072095;28;20049;-70
2023/12/24 05:30:44;;;;;;;10.07;2.80;;;9.90;99.90;;;;;;5055321;28;20275;-72
2023/12/24 05:33:10;;;;;;;12.85;3.47;;;9.90;99.90;;;;;;5070103;28;20090;-73
2023/12/24 05:35:35;;;;;;;10.05;2.78;;;9.90;99.90;;;;;;5072202;28;20053;-71
2023/12/24 05:38:01;;;;;;;8.02;3.10;;;9.90;99.90;;;;;;5071929;28;20052;-71
2023/12/24 05:40:27;;;;;;;12.98;2.83;;;10.00;99.90;;;;;;5070653;28;20510;-72
2023/12/24 05:42:53;;;;;;;11.95;3.08;;;10.00;99.90;;;;;;5072879;28;20090;-70
2023/12/24 05:45:18;;;;;;;9.88;3.05;;;10.00;99.90;;;;;;5054598;28;20104;-71
2023/12/24 05:47:44;;;;;;;11.63;3.30;;;9.90;99.90;;;;;;5071064;28;20351;-69
2023/12/24 05:50:10;;;;;;;18.92;4.18;;;10.10;99.90;;;;;;5071993;28;20051;-71
2023/12/24 05:52:37;;;;;;;15.70;2.95;;;10.10;99.90;;;;;;5054406;28;20446;-71
2023/12/24 05:55:03;;;;;;;11.85;3.60;;;10.10;99.90;;;;;;5073062;28;20052;-71
2023/12/24 05:57:29;;;;;;;13.27;3.40;;;10.10;99.90;;;;;;5071206;28;20055;-71
2023/12/24 05:59:56;;;;;;;16.92;3.08;;;10.10;99.90;;;;;;5072085;28;20131;-70
2023/12/24 06:02:21;;;;;;;18.00;3.88;;;10.10;99.90;;;;;;5071334;28;20063;-70
2023/12/24 06:04:47;;;;;;;16.20;3.20;;;10.20;99.90;;;;;;5071296;28;20032;-70
2023/12/24 06:07:13;;;;;;;14.77;3.38;;;10.10;99.90;;;;;;5054810;28;20445;-70
2023/12/24 06:09:38;;;;;;;24.63;3.47;;;10.20;99.90;;;;;;5072002;28;20464;-71
2023/12/24 06:12:04;;;;;;;22.20;3.83;;;10.10;99.90;;;;;;5072840;28;20131;-70
2023/12/24 06:14:30;;;;;;;20.00;4.03;;;10.10;99.90;;;;;;5053673;28;20494;-71
2023/12/24 06:16:56;;;;;;;18.50;3.63;;;10.20;99.90;;;;;;5072566;28;20041;-71
2023/12/24 06:19:22;;;;;;;18.75;3.88;;;10.20;99.90;;;;;;5072490;28;20044;-71
2023/12/24 06:21:48;;;;;;;19.30;3.90;;;10.30;99.90;;;;;;5053928;28;20652;-71
2023/12/24 06:24:13;;;;;;;18.27;3.88;;;10.20;99.90;;;;;;5071287;28;20084;-70
2023/12/24 06:26:39;;;;;;;14.15;3.38;;;10.30;99.90;;;;;;5071276;28;20045;-71
2023/12/24 06:29:05;;;;;;;20.60;3.60;;;10.30;99.90;;;;;;5071334;28;20037;-70
2023/12/24 06:31:30;;;;;;;14.35;3.70;;;10.20;99.90;;;;;;5075784;28;20040;-75
2023/12/24 06:33:56;;;;;;;20.73;3.58;;;10.20;99.90;;;;;;5057682;28;20056;-71
2023/12/24 06:36:22;;;;;;;14.52;3.88;;;10.30;99.90;;;;;;5075541;28;20487;-70
2023/12/24 06:38:47;;;;;;;20.83;3.70;;;10.20;99.90;;;;;;5057815;28;20449;-71
2023/12/24 06:41:13;;;;;;;14.73;3.45;;;10.30;99.90;;;;;;5058510;28;20055;-70
2023/12/24 06:43:39;;;;;;;15.27;3.88;;;10.30;99.90;;;;;;5057825;28;20114;-70
2023/12/24 06:46:06;;;;;;;16.10;3.72;;;10.30;99.90;;;;;;5074922;28;20063;-70
2023/12/24 06:48:33;;;;;;;19.50;3.65;;;10.30;99.90;;;;;;5074965;28;20144;-73
2023/12/24 06:50:58;;;;;;;15.68;3.10;;;10.30;99.90;;;;;;5075210;28;20528;-71
2023/12/24 06:53:25;;;;;;;16.35;2.80;;;10.40;99.90;;;;;;5075846;28;20127;-71
2023/12/24 06:55:51;;;;;;;15.00;3.13;;;10.40;99.90;;;;;;5074068;28;20040;-71
2023/12/24 06:58:16;;;;;;;12.27;2.63;;;10.30;99.90;;;;;;5074714;28;20047;-71
2023/12/24 07:00:42;;;;;;;15.23;3.40;;;10.30;99.90;;;;;;5074991;28;20056;-71
2023/12/24 07:03:07;;;;;;;12.63;2.90;;;10.30;99.90;;;;;;5074785;28;20483;-71
2023/12/24 07:05:35;;;;;;;16.98;3.08;;;10.30;99.90;;;;;;5074742;28;20472;-71
2023/12/24 07:08:02;;;;;;;18.40;3.50;;;10.40;99.90;;;;;;5073773;28;20141;-71
2023/12/24 07:10:28;;;;;;;15.15;3.22;;;10.40;99.90;;;;;;5075961;28;20052;-71
2023/12/24 07:12:53;;;;;;;19.60;4.10;;;10.40;99.90;;;;;;5074039;28;20446;-71
2023/12/24 07:15:19;;;;;;;13.60;3.38;;;10.40;99.90;;;;;;5075772;28;20055;-70
2023/12/24 07:17:45;;;;;;;13.90;3.40;;;10.40;99.90;;;;;;5074951;28;20045;-71
2023/12/24 07:20:11;;;;;;;15.57;3.45;;;10.50;99.90;;;;;;5075019;28;20040;-70
2023/12/24 07:22:37;;;;;;;15.63;2.95;;;10.50;99.90;;;;;;5074192;28;20052;-74
2023/12/24 07:25:04;;;;;;;17.52;3.05;;;10.40;99.90;;;;;;5075136;28;20044;-71
2023/12/24 07:27:29;;;;;;;24.85;3.53;;;10.60;99.90;;;;;;5057761;28;20062;-71
2023/12/24 07:29:56;;;;;;;15.13;3.38;;;10.60;99.90;;;;;;5074872;28;20052;-71
2023/12/24 07:32:21;;;;;;;16.33;3.63;;;10.50;99.90;;;;;;5057831;28;20083;-71
2023/12/24 07:34:47;;;;;;;17.98;3.20;;;10.50;99.90;;;;;;5056777;28;20432;-71
2023/12/24 07:37:13;;;;;;;12.55;3.30;;;10.50;99.90;;;;;;5075382;28;20396;-70
2023/12/24 07:39:39;;;;;;;15.38;3.35;;;10.60;99.90;;;;;;5073239;28;20609;-75
2023/12/24 07:42:05;;;;;;;20.02;3.60;;;10.50;99.90;;;;;;5074456;28;20060;-71
2023/12/24 07:44:31;;;;;;;19.23;3.72;;;10.60;99.90;;;;;;5074826;28;20052;-70
2023/12/24 07:46:57;;;;;;;16.95;3.58;;;10.70;99.90;;;;;;5075105;28;20048;-71
2023/12/24 07:49:22;;;;;;;18.48;3.78;;;10.60;99.90;;;;;;5074284;28;20197;-71
2023/12/24 07:51:48;;;;;;;15.13;3.42;;;10.60;99.90;;;;;;5074191;28;20509;-71
2023/12/24 07:54:14;;;;;;;16.70;3.85;;;10.70;99.90;;;;;;5075165;28;20045;-72
2023/12/24 07:56:40;;;;;;;23.08;4.20;;;10.60;99.90;;;;;;5073423;28;20045;-70
2023/12/24 07:59:05;;;;;;;15.45;3.28;;;10.70;99.90;;;;;;5073736;28;20155;-75
2023/12/24 08:01:31;;;;;;;19.88;3.65;;;10.70;99.90;;;;;;5073320;28;20052;-70
2023/12/24 08:03:57;;;;;;;16.13;3.22;;;10.70;99.90;;;;;;5074486;28;20045;-71
2023/12/24 08:06:22;;;;;;;15.90;3.60;;;10.70;99.90;;;;;;5074444;28;20044;-70
2023/12/24 08:08:48;;;;;;;19.83;3.72;;;10.80;99.90;;;;;;5073028;28;20083;-74
2023/12/24 08:11:14;;;;;;;19.95;3.63;;;10.70;99.90;;;;;;5074027;28;20135;-71
2023/12/24 08:13:39;;;;;;;14.00;3.13;;;10.70;99.90;;;;;;5073918;28;20047;-71
2023/12/24 08:16:06;;;;;;;17.98;3.20;;;10.70;99.90;;;;;;5072417;28;20048;-71
2023/12/24 08:18:32;;;;;;;14.02;3.35;;;10.70;99.90;;;;;;5073405;28;20059;-72
2023/12/24 08:20:57;;;;;;;14.30;3.45;;;10.70;99.90;;;;;;5073404;28;20476;-71
2023/12/24 08:23:23;;;;;;;13.77;3.30;;;10.80;99.90;;;;;;5073029;28;20045;-71
2023/12/24 08:25:49;;;;;;;16.42;4.10;;;10.70;99.90;;;;;;5073082;28;20048;-72
2023/12/24 08:28:14;;;;;;;14.45;3.13;;;10.70;99.90;;;;;;5072577;28;20049;-71
2023/12/24 08:30:40;;;;;;;10.90;3.40;;;10.70;99.90;;;;;;5072867;28;20131;-71
2023/12/24 08:33:06;;;;;;;20.17;3.95;;;10.70;99.90;;;;;;5072039;28;20067;-73
2023/12/24 08:35:33;;;;;;;24.05;3.63;;;10.80;99.90;;;;;;5074021;28;20059;-72
2023/12/24 08:37:59;;;;;;;18.88;3.08;;;10.80;99.90;;;;;;5073737;28;20088;-72
2023/12/24 08:40:27;;;;;;;16.08;3.63;;;10.80;99.90;;;;;;5074014;28;20047;-71
2023/12/24 08:42:54;;;;;;;18.17;4.05;;;10.80;99.90;;;;;;5072609;28;20051;-71
2023/12/24 08:45:21;;;;;;;17.42;3.90;;;10.80;99.90;;;;;;5040104;28;20062;-71
2023/12/24 08:47:47;;;;;;;22.58;4.88;;;10.80;99.90;;;;;;5072896;28;20091;-72
2023/12/24 08:50:13;;;;;;;14.95;3.97;;;10.80;99.90;;;;;;5073051;28;20059;-71
2023/12/24 08:52:40;;;;;;;18.50;4.75;;;10.80;99.90;;;;;;5071249;28;20044;-71
2023/12/24 08:55:06;;;;;;;16.90;4.72;;;10.90;99.90;;;;;;5072024;28;20151;-71
2023/12/24 08:57:32;;;;;;;18.25;4.63;;;10.90;99.90;;;;;;5072197;28;20047;-72
2023/12/24 08:59:57;;;;;;;13.90;3.78;;;10.80;99.90;;;;;;5073561;28;20134;-72
2023/12/24 09:02:23;;;;;;;20.02;4.80;;;10.90;99.90;;;;;;5072981;28;20136;-72
2023/12/24 09:04:49;;;;;;;18.67;4.45;;;11.00;99.90;;;;;;5072680;28;20139;-71
2023/12/24 09:07:17;;;;;;;16.85;3.90;;;10.90;99.90;;;;;;5073234;28;20067;-72
2023/12/24 09:09:43;;;;;;;13.50;3.13;;;10.90;99.90;;;;;;5073400;28;20055;-71
2023/12/24 09:12:09;;;;;;;17.02;4.22;;;11.00;99.90;;;;;;5073084;28;20422;-71
2023/12/24 09:14:35;;;;;;;23.02;4.35;;;11.00;99.90;;;;;;5073227;28;20131;-70
2023/12/24 09:17:01;;;;;;;19.25;4.18;;;11.00;99.90;;;;;;5071583;28;20044;-72
2023/12/24 09:19:26;;;;;;;25.42;4.57;;;11.10;99.90;;;;;;5055593;28;20079;-72
2023/12/24 09:21:52;;;;;;;8.43;3.53;;;11.00;99.90;;;;;;5073047;28;20372;-71
2023/12/24 09:24:18;;;;;;;18.45;4.32;;;11.00;99.90;;;;;;5072801;28;20048;-71
2023/12/24 09:26:43;;;;;;;15.77;4.38;;;11.00;99.90;;;;;;5056037;28;20047;-71
2023/12/24 09:29:11;;;;;;;18.95;4.78;;;11.00;99.90;;;;;;5071835;28;20064;-71
2023/12/24 09:31:39;;;;;;;14.45;4.22;;;11.20;99.90;;;;;;5072954;28;20102;-71
2023/12/24 09:34:08;;;;;;;16.35;4.10;;;11.20;99.90;;;;;;5072277;28;20060;-70
2023/12/24 09:36:33;;;;;;;18.70;4.93;;;11.20;99.90;;;;;;5073164;28;20048;-70
2023/12/24 09:38:59;;;;;;;15.50;4.55;;;11.20;99.90;;;;;;5054592;28;20135;-75
2023/12/24 09:41:25;;;;;;;19.20;4.88;;;11.20;99.90;;;;;;5073332;28;20106;-69
2023/12/24 09:43:50;;;;;;;18.50;4.00;;;11.20;99.90;;;;;;5071714;28;20052;-69
2023/12/24 09:46:16;;;;;;;17.27;4.00;;;11.20;99.90;;;;;;5072821;28;20099;-70
2023/12/24 09:48:41;;;;;;;12.70;4.10;;;11.20;99.90;;;;;;5073302;28;20045;-70
2023/12/24 09:51:08;;;;;;;12.80;3.75;;;11.20;99.90;;;;;;5071888;28;20503;-71
2023/12/24 09:53:34;;;;;;;17.85;4.80;;;11.30;99.90;;;;;;5071410;28;20091;-71
2023/12/24 09:55:59;;;;;;;16.00;4.43;;;11.20;99.90;;;;;;5071417;28;20075;-74
2023/12/24 09:58:25;;;;;;;13.43;3.90;;;11.20;99.90;;;;;;5072852;28;20051;-71
2023/12/24 10:00:51;;;;;;;14.82;4.10;;;11.30;99.90;;;;;;5072859;28;20044;-70
2023/12/24 10:03:16;;;;;;;19.02;4.40;;;11.40;99.90;;;;;;5072607;28;20040;-70
2023/12/24 10:06:03;;;;;;;20.98;4.13;;;11.40;99.90;;;;;;5071880;28;20139;-69
2023/12/24 10:08:30;;;;;;;21.73;4.60;;;11.30;99.90;;;;;;5071531;28;20056;-70
2023/12/24 10:10:57;;;;;;;15.63;4.45;;;11.40;99.90;;;;;;5072583;28;20483;-71
2023/12/24 10:13:23;;;;;;;17.95;4.57;;;11.40;99.90;;;;;;5072135;28;20048;-70
2023/12/24 10:16:05;;;;;;;15.02;3.90;;;11.30;99.90;;;;;;5072589;28;20048;-72
2023/12/24 10:18:32;;;;;;;12.98;3.28;;;11.40;99.90;;;;;;5072351;28;20052;-72
2023/12/24 10:21:10;;;;;;;13.43;4.05;;;11.40;99.90;;;;;;5070847;28;20051;-73
2023/12/24 10:23:36;;;;;;;14.57;4.35;;;11.40;99.90;;;;;;5071412;28;20049;-72
2023/12/24 10:26:04;;;;;;;13.02;3.60;;;11.50;99.90;;;;;;5071591;28;20052;-74
2023/12/24 10:28:30;;;;;;;11.48;3.65;;;11.40;99.90;;;;;;5072092;28;20052;-73
2023/12/24 10:31:10;;;;;;;19.08;4.55;;;11.50;99.90;;;;;;5071291;28;20084;-72
2023/12/24 10:33:37;;;;;;;16.50;4.65;;;11.50;99.90;;;;;;5070813;28;20052;-70
2023/12/24 10:36:04;;;;;;;16.58;4.13;;;11.50;99.90;;;;;;5073409;28;20078;-72
2023/12/24 10:38:30;;;;;;;15.52;4.30;;;11.60;99.90;;;;;;5071778;28;20451;-70
2023/12/24 10:40:56;;;;;;;11.45;3.40;;;11.60;99.90;;;;;;5072336;28;20044;-71
2023/12/24 10:43:22;;;;;;;13.02;3.35;;;11.70;99.90;;;;;;5055119;28;20059;-71
2023/12/24 10:45:48;;;;;;;17.83;4.18;;;11.70;99.90;;;;;;5073180;28;20048;-72
2023/12/24 10:48:14;;;;;;;9.65;2.60;;;11.70;99.90;;;;;;5055173;28;20090;-72
2023/12/24 10:50:40;;;;;;;16.30;3.90;;;11.70;99.90;;;;;;5071418;28;20135;-71
2023/12/24 10:53:05;;;;;;;13.80;3.80;;;11.70;99.90;;;;;;5072072;28;20048;-72
2023/12/24 10:55:33;;;;;;;15.90;3.80;;;11.70;99.90;;;;;;5071112;28;20049;-71
2023/12/24 10:58:29;;;;;;;15.48;3.67;;;11.70;99.90;;;;;;5071008;28;20048;-69
2023/12/24 11:01:05;;;;;;;13.32;3.55;;;11.70;99.90;;;;;;5071870;28;20076;-72
2023/12/24 11:03:41;;;;;;;17.40;3.63;;;11.80;99.90;;;;;;5071618;28;20113;-71
2023/12/24 11:06:09;;;;;;;12.07;3.47;;;11.90;99.90;;;;;;5070772;28;20044;-71
2023/12/24 11:08:35;;;;;;;15.63;3.30;;;11.90;99.90;;;;;;5070600;28;20380;-75
2023/12/24 11:11:06;;;;;;;11.27;3.55;;;11.90;99.90;;;;;;5038116;28;20053;-72
2023/12/24 11:13:32;;;;;;;13.80;3.38;;;12.00;99.90;;;;;;5071658;28;20668;-73
2023/12/24 11:16:04;;;;;;;9.68;2.78;;;11.90;99.90;;;;;;5055417;28;20045;-72
2023/12/24 11:18:48;;;;;;;10.98;2.80;;;11.90;99.90;;;;;;5074149;28;20059;-75
2023/12/24 11:21:19;;;;;;;9.93;2.80;;;12.00;99.90;;;;;;5074133;28;20450;-75
2023/12/24 11:24:12;;;;;;;11.85;2.40;;;11.90;99.90;;;;;;5075131;28;20454;-74
2023/12/24 11:26:48;;;;;;;11.50;2.97;;;12.00;99.90;;;;;;5073364;28;20049;-74
2023/12/24 11:29:48;;;;;;;11.30;2.95;;;12.00;99.90;;;;;;5074820;28;20123;-75
2023/12/24 11:32:26;;;;;;;13.73;3.75;;;12.00;99.90;;;;;;5073867;28;20040;-76
2023/12/24 11:34:58;;;;;;;13.80;3.50;;;12.10;99.90;;;;;;5055632;28;20060;-71
2023/12/24 11:37:34;;;;;;;15.43;3.42;;;12.00;99.90;;;;;;5073752;28;20049;-76
2023/12/24 11:40:12;;;;;;;12.38;3.47;;;12.00;99.90;;;;;;5074303;28;20178;-74
2023/12/24 11:42:51;;;;;;;15.85;3.63;;;11.90;99.90;;;;;;5074497;28;20049;-74
2023/12/24 11:45:26;;;;;;;17.35;3.25;;;12.00;99.90;;;;;;5073654;28;20044;-76
2023/12/24 11:47:53;;;;;;;14.80;3.63;;;12.00;99.90;;;;;;5057635;28;20053;-72
2023/12/24 11:50:20;;;;;;;14.02;3.53;;;11.90;99.90;;;;;;5073438;28;20075;-76
2023/12/24 11:52:48;;;;;;;22.92;3.63;;;11.90;99.90;;;;;;5074268;28;20064;-74
2023/12/24 11:55:18;;;;;;;12.13;3.45;;;12.00;99.90;;;;;;5057815;28;20055;-74
2023/12/24 11:57:45;;;;;;;13.65;2.85;;;12.10;99.90;;;;;;5057615;28;20126;-76
2023/12/24 12:00:32;;;;;;;11.50;2.80;;;12.10;99.90;;;;;;5073950;28;20597;-74
2023/12/24 12:02:59;;;;;;;14.45;3.10;;;12.20;99.90;;;;;;5056738;28;20464;-74
2023/12/24 12:05:26;;;;;;;13.55;3.40;;;12.20;99.90;;;;;;5073280;28;20032;-73
2023/12/24 12:07:52;;;;;;;12.93;3.42;;;12.10;99.90;;;;;;5074614;28;20045;-75
2023/12/24 12:10:18;;;;;;;9.88;3.22;;;12.20;99.90;;;;;;5074295;28;20134;-74
2023/12/24 12:12:44;;;;;;;11.65;3.25;;;12.10;99.90;;;;;;5072997;28;20044;-76
2023/12/24 12:15:14;;;;;;;14.68;3.60;;;12.20;99.90;;;;;;5073721;28;20086;-78
2023/12/24 12:17:40;;;;;;;11.57;2.72;;;12.20;99.90;;;;;;5073537;28;20079;-74
2023/12/24 12:20:06;;;;;;;11.30;2.58;;;12.20;99.90;;;;;;5074244;28;20052;-74
2023/12/24 12:22:32;;;;;;;11.48;3.25;;;12.20;99.90;;;;;;5073297;28;20041;-75
2023/12/24 12:24:58;;;;;;;16.40;3.00;;;12.20;99.90;;;;;;5057107;28;20059;-75
2023/12/24 12:27:25;;;;;;;12.27;2.70;;;12.10;99.90;;;;;;5073643;28;20488;-77
2023/12/24 12:29:51;;;;;;;12.18;3.50;;;12.20;99.90;;;;;;5074407;28;20395;-75
2023/12/24 12:32:16;;;;;;;12.70;3.17;;;12.20;99.90;;;;;;5074181;28;20044;-74
2023/12/24 12:34:43;;;;;;;11.85;3.15;;;12.30;99.90;;;;;;5039454;28;20056;-74
2023/12/24 12:37:10;;;;;;;11.68;2.78;;;12.30;99.90;;;;;;5056610;28;20050;-75
2023/12/24 12:39:36;;;;;;;15.20;2.92;;;12.30;99.90;;;;;;5073637;28;20070;-73
2023/12/24 12:42:03;;;;;;;15.82;2.88;;;12.30;99.90;;;;;;5056370;28;20436;-74